CheckWX is a tool to help pilots better visualize weather data.  It is not intended as a substitute for an official pre-flight weather briefing.

22:25:07 UTC

KGKJ METAR
Port Meadville Airport
Meadville, Pennsylvania, USA
Current

32 mins ago

KGKJ 082153Z AUTO 27005KT 10SM CLR 14/03 A2968 RMK AO2 SLP051 T01390028
Observed
Apr-8 @ 21:53 UTC
Wind
  • 270° at 5 KTS
Visibility
Flight Rules
VFR
Cloud Levels
  • Clear skies
Temperature
14°C / 57°F
Dewpoint
C / 37°F
Humidity
48%
Altimeter
29.68" Hg
Pressure
1005.12 hPa
Previous

2 hours ago

KGKJ 082053Z AUTO 33009KT 280V360 10SM CLR 15/03 A2970 RMK AO2 SLP055 T01500033 58003
Observed
Apr-8 @ 20:53 UTC
Wind
  • 330° at 9 KTS
Visibility
Flight Rules
VFR
Cloud Levels
  • Clear skies
Temperature
15°C / 59°F
Dewpoint
C / 37°F
Humidity
45%
Altimeter
29.7" Hg
Pressure
1005.72 hPa
Previous

3 hours ago

KGKJ 081953Z AUTO 31011G19KT 10SM CLR 14/03 A2971 RMK AO2 SLP058 T01440033
Observed
Apr-8 @ 19:53 UTC
Wind
  • 310° at 11 KTS
  • Gusting to 19 KTS
Visibility
Flight Rules
VFR
Cloud Levels
  • Clear skies
Temperature
14°C / 57°F
Dewpoint
C / 37°F
Humidity
48%
Altimeter
29.71" Hg
Pressure
1006.12 hPa